Time;durP1;ratioP1;P1;durP2;ratioP2;P2;SDS_P1;SDS_P2;PMS_P1;PMS_P2;Temp;Humidity;BMP_temperature;BMP_pressure;BME280_temperature;BME280_humidity;BME280_pressure;Samples;Min_cycle;Max_cycle;Signal;HPM_P1;HPM_P2
2022/02/23 00:04:16;;;;;;;;;;;6.60;99.90;;;5.38;90.68;96039.75;10563602;28;1997;-71
2022/02/23 00:09:19;;;;;;;;;;;6.40;99.90;;;5.35;91.50;96029.56;10544694;28;1911;-71
2022/02/23 00:14:22;;;;;;;;;;;6.20;99.90;;;5.41;91.58;96035.81;10569147;27;1922;-70
2022/02/23 00:19:25;;;;;;;;;;;6.20;99.90;;;5.42;90.91;96032.91;10548777;28;1820;-70
2022/02/23 00:24:28;;;;;;;;;;;6.30;99.90;;;5.48;90.47;96039.16;10544103;28;1916;-71
2022/02/23 00:29:31;;;;;;;;;;;6.30;99.90;;;5.51;91.10;96037.88;10580412;28;1862;-70
2022/02/23 00:34:35;;;;;;;;;;;6.40;99.90;;;5.49;92.57;96046.13;10563845;28;1979;-71
2022/02/23 00:39:38;;;;;;;;;;;6.40;99.90;;;5.30;98.61;96052.63;10559162;28;1775;-71
2022/02/23 00:44:42;;;;;;;;;;;6.20;99.90;;;5.10;100.00;96042.34;10576753;28;1878;-71
2022/02/23 00:49:47;;;;;;;;;;;6.10;99.90;;;5.11;100.00;96054.63;10581023;27;1801;-72
2022/02/23 00:54:50;;;;;;;;;;;5.90;99.90;;;5.15;99.30;96045.09;10567433;28;1976;-71
2022/02/23 00:59:53;;;;;;;;;;;5.90;99.90;;;5.26;97.87;96046.13;10564677;28;1907;-71
2022/02/23 01:04:56;;;;;;;;;;;6.10;99.90;;;5.31;97.35;96048.91;10562945;27;1957;-70
2022/02/23 01:09:59;;;;;;;;;;;6.10;99.90;;;5.34;98.18;96038.63;10564818;27;1833;-72
2022/02/23 01:15:02;;;;;;;;;;;6.10;99.90;;;5.40;96.19;96021.66;10583527;27;1980;-70
2022/02/23 01:20:05;;;;;;;;;;;6.20;99.90;;;5.50;95.87;96034.41;10556139;27;1801;-72
2022/02/23 01:25:09;;;;;;;;;;;6.30;99.90;;;5.55;94.86;96029.19;10570209;27;1773;-71
2022/02/23 01:30:12;;;;;;;;;;;6.30;99.90;;;5.59;93.51;96034.84;10575092;27;1840;-71
2022/02/23 01:35:16;;;;;;;;;;;6.40;99.90;;;5.65;92.89;96045.38;10572939;27;1917;-70
2022/02/23 01:40:19;;;;;;;;;;;6.40;99.90;;;5.63;94.82;96046.66;10547769;27;1772;-70
2022/02/23 01:45:22;;;;;;;;;;;6.50;99.90;;;5.66;94.23;96044.34;10572297;27;2168;-71
2022/02/23 01:50:25;;;;;;;;;;;6.50;99.90;;;5.63;94.44;96055.47;10571377;27;1854;-71
2022/02/23 01:55:28;;;;;;;;;;;6.50;99.90;;;5.67;95.64;96053.16;10540805;27;1969;-71
2022/02/23 02:00:31;;;;;;;;;;;6.50;99.90;;;5.51;98.29;96059.22;10569760;27;1841;-71
2022/02/23 02:05:34;;;;;;;;;;;6.50;99.90;;;5.33;100.00;96058.28;10559651;27;1793;-70
2022/02/23 02:10:38;;;;;;;;;;;6.30;99.90;;;5.25;100.00;96058.66;10544726;27;1871;-70
2022/02/23 02:15:43;;;;;;;;;;;6.10;99.90;;;5.13;100.00;96066.66;10552746;27;2020;-71
2022/02/23 02:20:47;;;;;;;;;;;6.00;99.90;;;5.22;100.00;96067.13;10553173;27;1926;-71
2022/02/23 02:25:53;;;;;;;;;;;6.00;99.90;;;5.25;100.00;96077.31;10561273;27;1867;-71
2022/02/23 02:30:59;;;;;;;;;;;6.00;99.90;;;5.27;100.00;96069.88;10562129;27;1960;-70
2022/02/23 02:36:02;;;;;;;;;;;6.10;99.90;;;5.21;100.00;96092.13;10569052;27;2065;-71
2022/02/23 02:41:06;;;;;;;;;;;6.10;99.90;;;5.20;100.00;96069.19;10590211;27;1914;-72
2022/02/23 02:46:09;;;;;;;;;;;6.00;99.90;;;5.21;100.00;96070.81;10566596;27;1942;-71
2022/02/23 02:51:13;;;;;;;;;;;6.00;99.90;;;5.33;100.00;96084.94;10559278;27;1989;-70
2022/02/23 02:56:17;;;;;;;;;;;6.10;99.90;;;5.40;100.00;96082.97;10544015;27;1938;-72
2022/02/23 03:01:20;;;;;;;;;;;6.20;99.90;;;5.43;100.00;96071.84;10549443;27;1962;-72
2022/02/23 03:06:23;;;;;;;;;;;6.20;99.90;;;5.56;100.00;96092.13;10580460;27;2003;-71
2022/02/23 03:11:26;;;;;;;;;;;6.30;99.90;;;5.55;100.00;96092.38;10558648;27;1984;-71
2022/02/23 03:16:29;;;;;;;;;;;6.30;99.90;;;5.61;100.00;96107.44;10554328;27;1926;-72
2022/02/23 03:21:33;;;;;;;;;;;6.40;99.90;;;5.60;100.00;96116.47;10559160;27;1922;-71
2022/02/23 03:26:35;;;;;;;;;;;6.40;99.90;;;5.64;100.00;96104.28;10556627;27;2076;-72
2022/02/23 03:31:38;;;;;;;;;;;6.50;99.90;;;5.64;100.00;96122.97;10538819;28;1986;-70
2022/02/23 03:36:41;;;;;;;;;;;6.40;99.90;;;5.63;100.00;96119.47;10571364;27;1945;-72
2022/02/23 03:41:45;;;;;;;;;;;6.50;99.90;;;5.68;100.00;96140.13;10568501;27;1879;-72
2022/02/23 03:46:48;;;;;;;;;;;6.60;99.90;;;5.65;100.00;96148.56;10547176;27;1950;-72
2022/02/23 03:51:51;;;;;;;;;;;6.50;99.90;;;5.57;100.00;96179.09;10545037;27;1913;-71
2022/02/23 03:56:54;;;;;;;;;;;6.50;99.90;;;5.37;100.00;96207.94;10563632;27;2070;-72
2022/02/23 04:01:59;;;;;;;;;;;6.40;99.90;;;4.98;100.00;96268.78;10552332;28;1952;-71
2022/02/23 04:07:02;;;;;;;;;;;;;;;3.59;100.00;96323.47;10569182;27;2016;-72
2022/02/23 04:12:06;;;;;;;;;;;;;;;3.17;100.00;96317.00;10533966;27;1969;-72
2022/02/23 04:17:10;;;;;;;;;;;;;;;3.18;100.00;96326.59;10547065;28;1906;-72
2022/02/23 04:22:13;;;;;;;;;;;;;;;3.04;100.00;96351.63;10555202;28;2103;-73
2022/02/23 04:27:17;;;;;;;;;;;;;;;3.09;100.00;96360.56;10554474;28;1964;-72
2022/02/23 04:32:20;;;;;;;;;;;;;;;3.15;100.00;96373.00;10564769;28;1949;-72
2022/02/23 04:37:28;;;;;;;;;;;;;;;3.12;100.00;96370.81;10606291;27;1935;-72
2022/02/23 04:42:31;;;;;;;;;;;;;;;3.15;100.00;96396.94;10561360;27;1863;-72
2022/02/23 04:47:35;;;;;;;;;;;;;;;3.19;100.00;96400.00;10586407;27;1879;-73
2022/02/23 04:52:40;;;;;;;;;;;;;;;3.12;100.00;96400.03;10586408;27;1957;-72
2022/02/23 04:57:43;;;;;;;;;;;;;;;3.07;100.00;96399.84;10586241;27;1950;-73
2022/02/23 05:02:47;;;;;;;;;;;;;;;3.13;100.00;96403.50;10585585;27;1820;-72
2022/02/23 05:07:53;;;;;;;;;;;;;;;3.15;100.00;96406.75;10598242;27;1966;-72
2022/02/23 05:12:57;;;;;;;;;;;;;;;3.18;100.00;96416.94;10579018;27;2093;-72
2022/02/23 05:18:01;;;;;;;;;;;;;;;3.19;100.00;96422.06;10588124;27;1902;-73
2022/02/23 05:23:06;;;;;;;;;;;;;;;3.20;100.00;96420.22;10588632;27;1906;-72
2022/02/23 05:28:09;;;;;;;;;;;;;;;3.28;100.00;96435.09;10592706;27;1965;-72
2022/02/23 05:33:15;;;;;;;;;;;;;;;3.33;100.00;96453.88;10585900;27;1949;-72
2022/02/23 05:38:18;;;;;;;;;;;;;;;3.29;100.00;96464.09;10570041;27;1999;-71
2022/02/23 05:43:22;;;;;;;;;;;;;;;3.33;100.00;96469.81;10582715;27;1927;-73
2022/02/23 05:48:25;;;;;;;;;;;;;;;3.34;100.00;96485.56;10568318;27;1978;-72
2022/02/23 05:53:29;;;;;;;;;;;;;;;3.40;100.00;96505.97;10565709;27;1978;-72
2022/02/23 05:58:33;;;;;;;;;;;;;;;3.35;100.00;96510.28;10580802;27;1997;-72
2022/02/23 06:03:37;;;;;;;;;;;;;;;3.30;100.00;96518.06;10547719;27;2018;-73
2022/02/23 06:08:41;;;;;;;;;;;;;;;3.30;100.00;96515.41;10556054;27;2032;-72
2022/02/23 06:13:50;;;;;;;;;;;;;;;3.13;100.00;96528.34;10580683;27;1970;-72
2022/02/23 06:18:54;;;;;;;;;;;;;;;2.98;100.00;96547.97;10542858;27;1937;-73
2022/02/23 06:23:58;;;;;;;;;;;;;;;2.97;100.00;96558.81;10556399;27;2020;-72
2022/02/23 06:29:02;;;;;;;;;;;;;;;3.01;100.00;96552.06;10565746;27;1990;-73
2022/02/23 06:34:07;;;;;;;;;;;;;;;2.88;100.00;96557.41;10553148;27;1969;-73
2022/02/23 06:39:11;;;;;;;;;;;;;;;2.79;100.00;96570.03;10552421;27;1899;-71
2022/02/23 06:44:15;;;;;;;;;;;;;;;2.74;100.00;96575.19;10545269;28;2078;-70
2022/02/23 06:49:19;;;;;;;;;;;;;;;2.72;100.00;96582.50;10529584;27;1996;-70
2022/02/23 06:54:23;;;;;;;;;;;;;;;2.72;100.00;96588.63;10564191;27;1995;-69
2022/02/23 06:59:27;;;;;;;;;;;;;;;2.83;100.00;96589.06;10546169;27;1945;-69
2022/02/23 07:04:31;;;;;;;;;;;;;;;2.91;100.00;96596.81;10574533;27;1949;-70
2022/02/23 07:09:38;;;;;;;;;;;;;;;2.95;100.00;96613.97;10544324;28;2068;-69
2022/02/23 07:14:42;;;;;;;;;;;;;;;3.01;100.00;96613.16;10562872;27;1998;-70
2022/02/23 07:19:45;;;;;;;;;;;;;;;3.06;100.00;96615.19;10561121;27;1852;-69
2022/02/23 07:24:49;;;;;;;;;;;;;;;3.08;100.00;96624.59;10585610;27;1903;-69
2022/02/23 07:29:52;;;;;;;;;;;;;;;3.15;100.00;96632.56;10564886;27;1978;-70
2022/02/23 07:34:56;;;;;;;;;;;;;;;3.32;100.00;96640.94;10552136;27;2006;-70
2022/02/23 07:40:00;;;;;;;;;;;;;;;3.38;100.00;96645.41;10571289;27;2252;-70
2022/02/23 07:45:24;;;;;;;;;;;4.30;99.90;;;3.40;100.00;96648.69;10533860;28;1934;-69
2022/02/23 07:50:28;;;;;;;;;;;4.30;99.90;;;3.58;100.00;96656.81;10560556;27;1890;-70
2022/02/23 07:55:32;;;;;;;;;;;4.40;99.90;;;3.69;100.00;96656.19;10558023;27;1993;-70
2022/02/23 08:00:35;;;;;;;;;;;4.50;99.90;;;3.74;100.00;96659.03;10538106;28;1950;-71
2022/02/23 08:05:38;;;;;;;;;;;4.60;99.90;;;3.91;100.00;96666.56;10544643;27;1984;-71
2022/02/23 08:10:41;;;;;;;;;;;4.70;99.90;;;4.01;99.61;96661.63;10548104;28;1975;-70
2022/02/23 08:21:05;;;;;;;;;;;4.90;99.90;;;4.27;98.61;96687.31;10568939;27;1956;-69
2022/02/23 08:26:07;;;;;;;;;;;5.00;99.90;;;4.40;96.14;96697.09;10548449;28;1938;-70
2022/02/23 08:31:10;;;;;;;;;;;5.10;99.90;;;4.50;96.91;96697.44;10537408;28;1950;-70
2022/02/23 08:36:14;;;;;;;;;;;5.30;99.90;;;4.55;95.63;96702.94;10570528;28;1989;-71
2022/02/23 08:41:19;;;;;;;;;;;5.40;99.90;;;4.68;93.55;96705.53;10557936;28;2377;-70
2022/02/23 08:46:42;;;;;;;;;;;5.40;99.90;;;4.66;92.11;96712.91;10576038;27;2089;-70
2022/02/23 08:51:46;;;;;;;;;;;5.50;99.90;;;4.72;92.80;96717.41;10562727;28;1858;-69
2022/02/23 08:56:49;;;;;;;;;;;5.50;99.90;;;4.84;92.76;96713.03;10563157;28;2000;-70
2022/02/23 09:01:52;;;;;;;;;;;5.60;99.90;;;5.18;92.23;96720.78;10566567;28;1931;-71
2022/02/23 09:06:55;;;;;;;;;;;5.80;99.90;;;5.68;87.98;96718.94;10564863;28;2075;-70
2022/02/23 09:11:58;;;;;;;;;;;6.30;99.90;;;6.46;82.62;96713.00;10547525;28;2582;-70
2022/02/23 09:17:02;;;;;;;;;;;7.10;99.90;;;6.60;81.32;96708.31;10572216;28;1923;-70
2022/02/23 09:22:04;;;;;;;;;;;7.30;99.90;;;6.66;81.17;96712.75;10560750;27;1781;-69
2022/02/23 09:27:07;;;;;;;;;;;7.40;99.90;;;6.14;80.01;96723.03;10563246;27;2002;-70
2022/02/23 09:32:10;;;;;;;;;;;7.20;99.90;;;6.57;81.86;96727.47;10569119;27;1869;-68
2022/02/23 09:37:13;;;;;;;;;;;7.30;99.90;;;6.95;81.66;96725.31;10562023;27;2030;-69
2022/02/23 09:42:16;;;;;;;;;;;7.60;99.90;;;7.66;76.74;96722.78;10554727;27;1850;-69
2022/02/23 09:47:22;;;;;;;;;;;;;;;7.52;70.29;96714.97;10550264;27;2044;-69
2022/02/23 09:52:26;;;;;;;;;;;;;;;6.97;73.03;96719.72;10545882;27;1801;-68
2022/02/23 09:57:29;;;;;;;;;;;;;;;6.77;76.37;96725.34;10558494;27;1894;-68
2022/02/23 10:02:33;;;;;;;;;;;;;;;6.88;75.31;96727.25;10567477;27;1771;-68
2022/02/23 10:07:40;;;;;;;;;;;;;;;7.20;73.61;96722.47;10544700;28;1835;-67
2022/02/23 10:12:44;;;;;;;;;;;;;;;7.78;71.70;96715.56;10571593;27;1871;-68
2022/02/23 10:17:51;;;;;;;;;;;;;;;8.23;68.09;96709.59;10551949;27;1820;-69
2022/02/23 10:22:55;;;;;;;;;;;8.60;99.90;;;8.75;66.99;96712.28;10546272;27;1890;-69
2022/02/23 10:27:58;;;;;;;;;;;9.20;99.90;;;9.10;62.37;96712.97;10548029;27;1844;-70
2022/02/23 10:33:01;;;;;;;;;;;9.40;99.90;;;8.84;63.70;96708.16;10561679;27;1910;-69
2022/02/23 10:38:04;;;;;;;;;;;9.60;99.90;;;8.16;67.58;96701.69;10566268;27;1838;-69
2022/02/23 10:43:07;;;;;;;;;;;;;;;7.54;69.33;96704.84;10574040;27;1805;-69
2022/02/23 10:48:10;;;;;;;;;;;9.30;99.90;;;6.93;72.46;96706.00;10553775;27;2165;-69
2022/02/23 10:53:13;;;;;;;;;;;8.10;99.90;;;6.88;72.15;96711.22;10535102;27;1993;-69
2022/02/23 10:58:16;;;;;;;;;;;8.20;99.90;;;7.01;75.20;96711.03;10560935;27;1892;-69
2022/02/23 11:03:19;;;;;;;;;;;7.90;99.90;;;7.46;71.65;96702.53;10549327;27;1870;-69
2022/02/23 11:08:22;;;;;;;;;;;8.00;99.90;;;7.86;71.24;96696.47;10561120;27;1902;-69
2022/02/23 11:13:26;;;;;;;;;;;8.40;99.90;;;7.62;68.10;96700.19;10557680;27;1918;-68
2022/02/23 11:18:29;;;;;;;;;;;8.50;99.90;;;7.69;67.06;96696.34;10576375;27;1857;-70
2022/02/23 11:23:33;;;;;;;;;;;8.70;99.90;;;7.47;68.12;96693.44;10559671;27;1855;-70
2022/02/23 11:28:36;;;;;;;;;;;8.40;99.90;;;7.62;68.06;96692.16;10559755;27;1955;-70
2022/02/23 11:33:41;;;;;;;;;;;8.30;99.90;;;7.83;63.95;96683.56;10559316;27;1909;-70
2022/02/23 11:38:44;;;;;;;;;;;8.50;99.90;;;7.79;66.30;96674.38;10564082;27;1805;-70
2022/02/23 11:43:47;;;;;;;;;;;;;;;8.11;66.52;96662.22;10543927;27;1958;-70
2022/02/23 11:48:50;;;;;;;;;;;8.80;99.90;;;8.13;67.89;96664.66;10565448;27;1816;-70
2022/02/23 11:53:53;;;;;;;;;;;8.90;99.90;;;8.51;62.48;96652.59;10559694;27;1927;-69
2022/02/23 11:58:57;;;;;;;;;;;;;;;8.54;62.36;96639.53;10538886;28;1828;-68
2022/02/23 12:04:00;;;;;;;;;;;9.20;99.90;;;8.66;63.19;96639.50;10572121;27;1854;-69
2022/02/23 12:09:03;;;;;;;;;;;;;;;8.98;62.17;96630.94;10559982;28;1735;-71
2022/02/23 12:14:08;;;;;;;;;;;;;;;9.15;58.82;96613.78;10541505;28;2252;-69
2022/02/23 12:19:11;;;;;;;;;;;9.80;99.90;;;9.35;61.17;96607.09;10561570;28;1812;-69
2022/02/23 12:24:16;;;;;;;;;;;;;;;9.43;59.28;96604.03;10571329;28;1787;-68
2022/02/23 12:29:19;;;;;;;;;;;;;;;9.74;60.23;96584.63;10568220;28;1847;-69
2022/02/23 12:34:23;;;;;;;;;;;10.30;99.90;;;10.00;57.82;96574.19;10560525;28;1953;-68
2022/02/23 12:39:45;;;;;;;;;;;10.50;99.90;;;9.82;57.97;96579.88;10570836;28;1636;-67
2022/02/23 12:44:49;;;;;;;;;;;10.60;99.90;;;9.49;58.75;96576.22;10571050;28;1918;-68
2022/02/23 12:50:12;;;;;;;;;;;10.40;99.90;;;9.36;57.84;96574.69;10583599;28;1820;-69
2022/02/23 12:55:17;;;;;;;;;;;10.30;99.90;;;9.56;59.68;96568.78;10573016;28;1899;-70
2022/02/23 13:00:20;;;;;;;;;;;;;;;9.61;59.19;96557.31;10575663;27;1843;-67
2022/02/23 13:05:25;;;;;;;;;;;10.40;99.90;;;9.69;59.57;96549.63;10603498;27;1927;-68
2022/02/23 13:10:28;;;;;;;;;;;10.50;99.90;;;9.66;56.50;96542.06;10584665;27;1880;-67
2022/02/23 13:15:31;;;;;;;;;;;10.50;99.90;;;9.43;56.28;96547.69;10589117;27;1918;-68
2022/02/23 13:20:34;;;;;;;;;;;10.40;99.90;;;9.59;56.30;96532.56;10581600;27;1833;-68
2022/02/23 13:25:38;;;;;;;;;;;10.50;99.90;;;9.36;57.84;96534.44;10571876;27;1872;-66
2022/02/23 13:30:41;;;;;;;;;;;10.40;99.90;;;9.40;56.17;96532.06;10563325;27;1872;-68
2022/02/23 13:35:44;;;;;;;;;;;10.30;99.90;;;9.58;55.95;96529.09;10594202;27;1938;-67
2022/02/23 13:40:46;;;;;;;;;;;10.40;99.90;;;9.54;55.51;96513.72;10602276;27;1832;-68
2022/02/23 13:45:56;;;;;;;;;;;10.40;99.90;;;9.38;57.03;96513.53;10583645;27;1844;-68
2022/02/23 13:50:59;;;;;;;;;;;10.40;99.90;;;9.47;56.15;96513.91;10570064;27;1887;-68
2022/02/23 13:56:01;;;;;;;;;;;10.40;99.90;;;9.36;55.99;96512.97;10594586;27;1926;-68
2022/02/23 14:01:04;;;;;;;;;;;10.30;99.90;;;9.04;57.08;96503.94;10588802;27;1817;-70
2022/02/23 14:06:08;;;;;;;;;;;10.10;99.90;;;8.76;57.31;96507.50;10565627;27;1848;-70
2022/02/23 14:11:14;;;;;;;;;;;9.90;99.90;;;8.68;57.67;96499.88;10588145;27;1764;-70
2022/02/23 14:16:17;;;;;;;;;;;9.80;99.90;;;8.45;59.16;96504.31;10584951;27;1985;-69
2022/02/23 14:21:20;;;;;;;;;;;9.60;99.90;;;8.72;57.77;96503.69;10605347;27;1960;-70
2022/02/23 14:26:24;;;;;;;;;;;9.60;99.90;;;8.77;57.91;96491.16;10563242;27;1855;-69
2022/02/23 14:31:27;;;;;;;;;;;9.70;99.90;;;8.83;55.93;96486.69;10586931;27;1810;-69
2022/02/23 14:36:30;;;;;;;;;;;9.80;99.90;;;8.57;56.56;96483.63;10580541;27;1917;-68
2022/02/23 14:41:33;;;;;;;;;;;9.70;99.90;;;8.39;57.37;96481.97;10565361;27;1724;-69
2022/02/23 14:46:41;;;;;;;;;;;9.50;99.90;;;8.31;58.12;96473.50;10566690;27;2021;-68
2022/02/23 14:51:44;;;;;;;;;;;9.40;99.90;;;8.34;58.77;96470.34;10569137;28;1935;-69
2022/02/23 14:56:48;;;;;;;;;;;9.40;99.90;;;8.25;57.64;96474.47;10550990;27;1921;-68
2022/02/23 15:01:51;;;;;;;;;;;9.40;99.90;;;8.19;56.96;96460.16;10559313;27;1866;-68
2022/02/23 15:06:54;;;;;;;;;;;9.30;99.90;;;8.23;58.23;96465.88;10569301;27;1928;-69
2022/02/23 15:11:57;;;;;;;;;;;9.30;99.90;;;8.22;57.61;96446.31;10552146;27;1933;-70
2022/02/23 15:17:04;;;;;;;;;;;9.20;99.90;;;8.16;59.54;96439.25;10578437;27;1950;-69
2022/02/23 15:22:08;;;;;;;;;;;9.30;99.90;;;8.02;58.47;96444.09;10610368;27;1874;-68
2022/02/23 15:27:11;;;;;;;;;;;9.10;99.90;;;8.05;59.25;96443.59;10592446;27;1838;-69
2022/02/23 15:32:14;;;;;;;;;;;9.10;99.90;;;7.86;60.06;96440.31;10568092;27;1812;-68
2022/02/23 15:37:17;;;;;;;;;;;9.00;99.90;;;7.90;59.39;96432.63;10567713;27;2014;-68
2022/02/23 15:42:19;;;;;;;;;;;8.90;99.90;;;7.84;60.18;96429.03;10574188;27;1803;-69
2022/02/23 15:47:22;;;;;;;;;;;8.90;99.90;;;7.87;59.63;96417.03;10559247;27;2009;-70
2022/02/23 15:52:25;;;;;;;;;;;8.90;99.90;;;7.99;57.84;96417.78;10557542;28;1856;-67
2022/02/23 15:57:28;;;;;;;;;;;9.00;99.90;;;7.98;57.91;96415.38;10569124;27;1901;-70
2022/02/23 16:02:31;;;;;;;;;;;9.00;99.90;;;7.75;57.67;96413.59;10554378;27;1814;-69
2022/02/23 16:07:34;;;;;;;;;;;8.90;99.90;;;7.52;58.29;96406.50;10555953;27;1805;-69
2022/02/23 16:12:37;;;;;;;;;;;8.80;99.90;;;7.36;59.34;96397.34;10560771;27;1875;-71
2022/02/23 16:17:40;;;;;;;;;;;8.60;99.90;;;7.31;58.74;96397.25;10555580;27;1989;-69
2022/02/23 16:23:01;;;;;;;;;;;8.50;99.90;;;7.03;61.64;96398.84;10552570;28;1854;-71
2022/02/23 16:28:04;;;;;;;;;;;8.30;99.90;;;6.89;60.99;96397.47;10555007;28;1792;-69
2022/02/23 16:33:07;;;;;;;;;;;8.10;99.90;;;7.21;61.75;96389.03;10573591;27;1867;-69
2022/02/23 16:38:10;;;;;;;;;;;8.30;99.90;;;7.23;62.03;96384.25;10555400;28;1906;-68
2022/02/23 16:43:13;;;;;;;;;;;8.20;99.90;;;7.27;62.70;96377.41;10550680;27;2373;-68
2022/02/23 16:48:16;;;;;;;;;;;8.20;99.90;;;7.09;64.36;96382.91;10576331;27;1839;-71
2022/02/23 16:53:20;;;;;;;;;;;8.20;99.90;;;6.97;64.19;96385.59;10587070;27;1716;-69
2022/02/23 16:58:23;;;;;;;;;;;8.10;99.90;;;6.83;64.52;96389.59;10593034;28;1985;-70
2022/02/23 17:03:26;;;;;;;;;;;8.00;99.90;;;6.76;65.68;96377.16;10590120;27;1843;-72
2022/02/23 17:08:29;;;;;;;;;;;7.90;99.90;;;6.67;67.08;96383.09;10588849;27;1898;-71
2022/02/23 17:13:32;;;;;;;;;;;8.00;99.90;;;6.54;67.24;96375.31;10607485;27;1812;-69
2022/02/23 17:18:40;;;;;;;;;;;7.70;99.90;;;6.40;68.92;96388.91;10584661;27;1980;-70
2022/02/23 17:23:44;;;;;;;;;;;7.60;99.90;;;6.41;69.04;96379.84;10592732;27;1916;-70
2022/02/23 17:28:47;;;;;;;;;;;7.80;99.90;;;6.09;71.35;96378.53;10585233;27;1865;-70
2022/02/23 17:33:52;;;;;;;;;;;7.40;99.90;;;6.00;71.60;96371.94;10594641;27;1848;-71
2022/02/23 17:38:55;;;;;;;;;;;7.20;99.90;;;5.86;72.44;96371.31;10600830;27;1976;-70
2022/02/23 17:43:58;;;;;;;;;;;7.10;99.90;;;5.81;73.03;96371.97;10578911;27;1823;-70
2022/02/23 17:49:01;;;;;;;;;;;7.00;99.90;;;5.79;73.29;96358.06;10568242;27;1769;-69
2022/02/23 17:54:04;;;;;;;;;;;6.90;99.90;;;5.60;74.25;96351.16;10565350;28;1886;-70
2022/02/23 17:59:07;;;;;;;;;;;6.80;99.90;;;5.56;74.92;96355.31;10547694;27;1910;-70
2022/02/23 18:04:10;;;;;;;;;;;6.70;99.90;;;5.50;75.44;96348.22;10553939;28;1887;-69
2022/02/23 18:09:13;;;;;;;;;;;6.60;99.90;;;5.35;76.30;96341.47;10561561;27;1810;-70
2022/02/23 18:14:16;;;;;;;;;;;6.60;99.90;;;5.36;76.10;96332.44;10569024;27;1815;-69
2022/02/23 18:19:19;;;;;;;;;;;6.50;99.90;;;5.28;76.59;96319.44;10571932;27;1988;-70
2022/02/23 18:24:22;;;;;;;;;;;6.40;99.90;;;5.20;76.60;96313.59;10572819;27;1976;-69
2022/02/23 18:29:25;;;;;;;;;;;6.40;99.90;;;5.12;77.84;96312.88;10537347;28;1881;-68
2022/02/23 18:34:28;;;;;;;;;;;6.30;99.90;;;5.03;78.46;96302.75;10562284;27;1860;-68
2022/02/23 18:39:31;;;;;;;;;;;6.30;99.90;;;4.96;78.70;96308.16;10555287;27;2003;-70
2022/02/23 18:44:34;;;;;;;;;;;6.10;99.90;;;4.86;79.18;96303.38;10571586;27;1926;-69
2022/02/23 18:49:37;;;;;;;;;;;6.10;99.90;;;4.78;80.36;96285.03;10546860;28;1712;-70
2022/02/23 18:54:40;;;;;;;;;;;6.00;99.90;;;4.72;80.74;96275.28;10551145;27;1787;-70
2022/02/23 18:59:43;;;;;;;;;;;5.90;99.90;;;4.51;81.75;96267.75;10577934;27;1918;-70
2022/02/23 19:04:46;;;;;;;;;;;5.80;99.90;;;4.44;82.59;96254.50;10542648;28;1902;-72
2022/02/23 19:09:50;;;;;;;;;;;5.70;99.90;;;4.33;82.79;96261.41;10540253;28;1892;-70
2022/02/23 19:14:56;;;;;;;;;;;5.60;99.90;;;4.27;83.32;96249.00;10572551;27;1784;-71
2022/02/23 19:20:00;;;;;;;;;;;;;;;4.19;84.25;96237.81;10545514;27;2103;-70
2022/02/23 19:25:03;;;;;;;;;;;5.50;99.90;;;4.17;83.87;96235.38;10556896;27;1808;-71
2022/02/23 19:30:08;;;;;;;;;;;5.30;99.90;;;4.09;84.44;96224.22;10559318;27;1911;-72
2022/02/23 19:35:11;;;;;;;;;;;5.50;99.90;;;3.99;85.04;96216.75;10562741;27;1759;-72
2022/02/23 19:40:15;;;;;;;;;;;3.80;99.90;;;3.92;85.43;96210.69;10550798;28;2075;-71
2022/02/23 19:45:18;;;;;;;;;;;5.00;99.90;;;3.76;86.23;96207.59;10576982;27;1835;-72
2022/02/23 19:50:21;;;;;;;;;;;5.00;99.90;;;3.73;86.22;96192.06;10545482;27;1825;-72
2022/02/23 19:55:23;;;;;;;;;;;4.90;99.90;;;3.60;86.17;96189.53;10587503;27;2202;-71
2022/02/23 20:00:26;;;;;;;;;;;4.80;99.90;;;3.58;85.34;96172.19;10543353;28;1807;-72
2022/02/23 20:05:29;;;;;;;;;;;4.80;99.90;;;3.53;85.67;96165.66;10553940;27;1757;-71
2022/02/23 20:10:32;;;;;;;;;;;4.70;99.90;;;3.42;85.80;96149.63;10559164;28;1864;-72
2022/02/23 20:15:37;;;;;;;;;;;4.60;99.90;;;3.37;85.72;96144.16;10554256;27;1910;-71
2022/02/23 20:20:40;;;;;;;;;;;;;;;3.47;86.00;96139.97;10553961;28;1924;-71
2022/02/23 20:25:43;;;;;;;;;;;4.20;99.90;;;3.36;85.15;96139.88;10576974;28;1849;-71
2022/02/23 20:30:46;;;;;;;;;;;4.50;99.90;;;3.33;84.85;96127.84;10584931;27;1731;-71
2022/02/23 20:35:50;;;;;;;;;;;4.50;99.90;;;3.23;85.08;96114.25;10553245;28;1913;-70
2022/02/23 20:40:53;;;;;;;;;;;4.40;99.90;;;3.20;84.75;96112.03;10548630;28;1916;-70
2022/02/23 20:45:56;;;;;;;;;;;4.30;99.90;;;3.06;85.94;96105.22;10533853;28;1882;-68
2022/02/23 20:51:00;;;;;;;;;;;;;;;3.00;86.22;96109.56;10550427;27;2059;-70
2022/02/23 20:56:04;;;;;;;;;;;;;;;2.88;87.30;96106.78;10552396;28;2259;-70
2022/02/23 21:01:08;;;;;;;;;;;3.90;99.90;;;2.76;87.97;96119.16;10527929;28;2218;-70
2022/02/23 21:06:11;;;;;;;;;;;3.90;99.90;;;2.80;88.97;96115.03;10555783;28;1887;-69
2022/02/23 21:11:14;;;;;;;;;;;3.90;99.90;;;2.80;87.97;96111.53;10555158;28;1967;-69
2022/02/23 21:16:17;;;;;;;;;;;3.80;99.90;;;2.76;88.29;96115.69;10543263;28;1913;-70
2022/02/23 21:21:20;;;;;;;;;;;3.80;99.90;;;2.76;87.34;96108.53;10550860;28;1887;-70
2022/02/23 21:26:23;;;;;;;;;;;3.90;99.90;;;2.80;87.48;96115.03;10593218;27;1813;-70
2022/02/23 21:31:26;;;;;;;;;;;3.90;99.90;;;2.74;87.43;96101.81;10594758;27;1820;-70
2022/02/23 21:36:32;;;;;;;;;;;3.90;99.90;;;2.58;87.94;96093.34;10586389;27;1920;-70
2022/02/23 21:41:36;;;;;;;;;;;3.80;99.90;;;2.56;89.60;96094.59;10556919;27;1872;-69
2022/02/23 21:46:39;;;;;;;;;;;3.80;99.90;;;2.39;90.44;96086.31;10540538;28;2025;-69
2022/02/23 21:51:43;;;;;;;;;;;;;;;2.56;88.94;96079.47;10555769;28;1902;-70
2022/02/23 21:56:46;;;;;;;;;;;4.40;99.90;;;2.53;89.35;96076.44;10549107;27;1910;-70
2022/02/23 22:01:48;;;;;;;;;;;3.60;99.90;;;2.40;89.97;96080.00;10533273;28;2217;-71
2022/02/23 22:06:53;;;;;;;;;;;3.60;99.90;;;2.24;90.83;96085.81;10573547;27;1866;-71
2022/02/23 22:11:57;;;;;;;;;;;4.00;99.90;;;2.12;93.50;96083.84;10570344;27;1859;-70
2022/02/23 22:17:00;;;;;;;;;;;3.40;99.90;;;2.02;94.04;96083.47;10573701;27;1914;-71
2022/02/23 22:22:05;;;;;;;;;;;3.40;99.90;;;1.90;94.66;96085.97;10569094;27;1844;-71
2022/02/23 22:27:08;;;;;;;;;;;3.30;99.90;;;1.88;95.47;96081.94;10549713;27;1802;-70
2022/02/23 22:32:10;;;;;;;;;;;3.20;99.90;;;2.02;94.38;96072.88;10565310;27;1901;-70
2022/02/23 22:37:13;;;;;;;;;;;3.20;99.90;;;2.02;94.39;96075.53;10565403;27;1917;-70
2022/02/23 22:42:16;;;;;;;;;;;3.30;99.90;;;1.85;95.50;96071.75;10583093;27;1807;-70
2022/02/23 22:47:20;;;;;;;;;;;3.20;99.90;;;1.93;95.08;96074.16;10584194;27;1800;-70
2022/02/23 22:52:23;;;;;;;;;;;3.20;99.90;;;1.81;95.51;96066.06;10548972;27;1790;-69
2022/02/23 22:57:25;;;;;;;;;;;3.00;99.90;;;1.65;97.22;96065.72;10555228;27;1938;-70
2022/02/23 23:02:28;;;;;;;;;;;2.90;99.90;;;1.50;97.36;96069.44;10549728;27;1891;-70
2022/02/23 23:07:36;;;;;;;;;;;;;;;1.41;98.33;96080.50;10558866;27;1814;-69
2022/02/23 23:12:39;;;;;;;;;;;2.70;99.90;;;1.31;98.74;96071.13;10559401;27;1839;-69
2022/02/23 23:17:43;;;;;;;;;;;2.60;99.90;;;1.25;99.79;96071.16;10567973;27;1984;-70
2022/02/23 23:22:45;;;;;;;;;;;2.60;99.90;;;1.27;100.00;96074.41;10560161;28;1797;-69
2022/02/23 23:27:48;;;;;;;;;;;2.60;99.90;;;1.25;100.00;96068.50;10557909;27;1927;-70
2022/02/23 23:32:51;;;;;;;;;;;2.50;99.90;;;1.25;100.00;96061.38;10563531;27;1811;-70
2022/02/23 23:37:54;;;;;;;;;;;2.50;99.90;;;1.20;100.00;96061.16;10564316;27;1914;-70
2022/02/23 23:42:57;;;;;;;;;;;2.50;99.90;;;1.21;100.00;96054.03;10571464;27;1824;-71
2022/02/23 23:48:00;;;;;;;;;;;2.50;99.90;;;1.14;100.00;96038.16;10541444;27;1869;-70
2022/02/23 23:53:03;;;;;;;;;;;2.40;99.90;;;1.08;100.00;96031.91;10559998;27;1657;-70
2022/02/23 23:58:05;;;;;;;;;;;2.40;99.90;;;0.99;100.00;96041.06;10596826;27;2076;-69
